Wendy C — WYB6131 — position and weather

sailwx.info

Track history (hours):
 
Tides and Currents Weather Stations Pressure Air Temp Water Temp Dewpoint Dewpoint Depression Visibility Wind Speed Wind Dir Waves Ship Positions

Wendy C

Owner: Harbor Towing & Fleeting, Inc., Metairie, LA. More information available from US FCC via Universal Licensing System and Coast Guard Vessel Documentation Center.

Last reported at 2014-Dec-22 10:24 UTC. Time now 2014-Dec-22 14:55 UTC.
Position N 29°56' W 089°58'.

Length 19 m; draft 3 m.

Type: Towing. MMSI: 366160126.

Date/timePositionNaut miles runAvg speedWind from/ knotsBaromVisibWave heightAir tempDewpointWater temp
2014-Dec-22 10:24N 29°56' W 089°58'0 0.0
2014-Dec-22 09:27N 29°56' W 089°58'0 0.0
2014-Dec-22 08:30N 29°56' W 089°58'0 0.0
2014-Dec-22 07:24N 29°56' W 089°58'0 0.0
2014-Dec-22 05:26N 29°56' W 089°58'0 0.0
2014-Dec-22 04:26N 29°56' W 089°58'0 0.0
2014-Dec-22 03:19N 29°56' W 089°58'0 0.0
2014-Dec-22 02:27N 29°56' W 089°58'0 0.0
2014-Dec-21 13:16N 29°56' W 089°58'0 0.0
2014-Dec-21 12:05N 29°56' W 089°58'0 0.0
2014-Dec-21 11:17N 29°56' W 089°58'0 0.0
2014-Dec-21 10:23N 29°56' W 089°58'0 0.0
2014-Dec-21 09:23N 29°56' W 089°58'0 0.0
2014-Dec-21 08:33N 29°56' W 089°58'2 2.0
2014-Dec-21 07:33N 29°56' W 090°00'1 0.7
2014-Dec-21 06:29N 29°56' W 089°59'0 0.1
2014-Dec-21 05:32N 29°56' W 089°60'0 0.0
2014-Dec-21 04:26N 29°56' W 089°60'3 3.1
2014-Dec-21 03:32N 29°58' W 090°02'0 0.3
2014-Dec-21 02:30N 29°58' W 090°01'2 2.3
2014-Dec-21 01:28N 29°60' W 089°59'3 3.1
2014-Dec-21 00:33N 29°58' W 090°02'1 0.7
2014-Dec-20 23:33N 29°57' W 090°01'1 0.6
2014-Dec-20 21:32N 29°56' W 090°00'2 1.9
2014-Dec-20 20:32N 29°58' W 090°02'1 0.1
2014-Dec-20 08:09N 29°57' W 090°02'0 0.1
2014-Dec-20 07:32N 29°57' W 090°02'1 0.8
2014-Dec-20 06:29N 29°58' W 090°02'0 0.1
2014-Dec-20 05:20N 29°58' W 090°02'2 1.0
2014-Dec-20 03:16N 29°60' W 090°00'2 2.2
2014-Dec-20 02:12N 29°58' W 090°02'1 0.9
2014-Dec-20 01:32N 29°57' W 090°01'2 1.4
2014-Dec-20 00:17N 29°56' W 089°60'2 3.0
2014-Dec-19 23:28N 29°58' W 090°02'0 0.2
2014-Dec-19 22:31N 29°58' W 090°02'0 0.0
2014-Dec-19 21:33N 29°58' W 090°02'2 2.0
2014-Dec-19 20:31N 29°60' W 090°00'6 5.2
2014-Dec-19 19:19N 30°01' W 089°54'0 0.0
2014-Dec-19 18:03N 30°01' W 089°54'1 2.4
2014-Dec-19 17:30N 30°01' W 089°55'6 6.2
2014-Dec-19 16:33N 29°59' W 090°01'2 1.9
2014-Dec-19 15:32N 29°57' W 090°01'3 1.2
2014-Dec-19 13:03N 29°54' W 089°59'2 1.2
2014-Dec-19 11:10N 29°55' W 089°57'1 1.8
2014-Dec-19 10:29N 29°55' W 089°58'1 1.1
2014-Dec-19 09:31N 29°54' W 089°59'2 0.2
2014-Dec-18 23:19N 29°56' W 090°00'0 0.0
2014-Dec-18 22:07N 29°56' W 090°00'0 0.0
2014-Dec-18 21:21N 29°56' W 090°00'0 0.0
2014-Dec-18 19:25N 29°56' W 090°00'2 1.1
2014-Dec-18 17:06N 29°55' W 089°58'4 7.5
2014-Dec-18 16:32N 29°58' W 090°02'3 2.7
2014-Dec-18 15:31N 29°60' W 089°59'3 2.9
2014-Dec-18 14:33N 29°58' W 090°02'2 0.6
2014-Dec-18 11:28N 29°56' W 090°00'2 2.1
2014-Dec-18 10:33N 29°58' W 090°02'0 0.4
2014-Dec-18 09:32N 29°58' W 090°01'2 1.6
2014-Dec-18 08:32N 29°60' W 090°01'6 5.9
2014-Dec-18 07:33N 30°01' W 089°54'0 0.4
2014-Dec-18 06:33N 30°01' W 089°54'3 2.1
2014-Dec-18 05:18N 30°00' W 089°56'4 4.4
2014-Dec-18 04:25N 29°60' W 090°01'2 2.3
2014-Dec-18 03:31N 29°58' W 090°02'2 1.8
2014-Dec-18 02:20N 29°56' W 090°00'4 0.3
2014-Dec-17 16:03N 29°60' W 090°01'0 0.4
2014-Dec-17 15:15N 29°59' W 090°01'0 0.3
2014-Dec-17 14:20N 29°60' W 090°01'0 0.3
2014-Dec-17 13:15N 29°59' W 090°01'2 2.2
2014-Dec-17 12:33N 29°60' W 089°60'3 2.6
2014-Dec-17 11:25N 29°58' W 090°02'1 1.2
2014-Dec-17 10:30N 29°57' W 090°01'1 1.2
2014-Dec-17 09:33N 29°56' W 089°60'0 0.1
2014-Dec-17 08:32N 29°56' W 090°00'2 2.1
2014-Dec-17 07:30N 29°58' W 090°02'4 4.6
2014-Dec-17 06:33N 30°00' W 089°57'4 4.1
2014-Dec-17 05:33N 30°01' W 089°53'7 6.3
2014-Dec-17 04:31N 29°60' W 090°00'3 2.9
2014-Dec-17 03:33N 29°57' W 090°01'1 1.3
2014-Dec-17 02:30N 29°56' W 090°00'0 0.1
2014-Dec-17 01:33N 29°56' W 090°00'0 0.2
2014-Dec-17 00:32N 29°56' W 090°00'0 0.1
2014-Dec-16 23:32N 29°56' W 090°00'1 0.1
2014-Dec-16 06:18N 29°57' W 090°01'1 0.1
2014-Dec-16 02:31N 29°58' W 090°02'1 0.2
2014-Dec-15 23:20N 29°57' W 090°01'1 1.5
2014-Dec-15 22:26N 29°56' W 090°00'0 0.0
2014-Dec-15 21:33N 29°56' W 090°00'0 0.0
2014-Dec-15 20:33N 29°56' W 090°00'0 0.0
2014-Dec-15 19:30N 29°56' W 090°00'3 2.9
2014-Dec-15 18:33N 29°59' W 090°01'1 1.2
2014-Dec-15 17:32N 29°60' W 090°00'2 2.2
2014-Dec-15 16:30N 29°58' W 090°02'1 0.6
2014-Dec-15 15:32N 29°57' W 090°01'1 0.1
2014-Dec-15 00:17N 29°58' W 090°02'2 0.6
2014-Dec-14 20:18N 29°56' W 090°00'0 0.2
2014-Dec-14 19:33N 29°56' W 090°00'0 0.0
2014-Dec-14 17:26N 29°56' W 090°00'0 0.0
2014-Dec-14 16:21N 29°56' W 090°00'2 2.4
2014-Dec-14 15:33N 29°57' W 090°02'1 0.8
2014-Dec-14 14:33N 29°58' W 090°02'0 0.5
2014-Dec-14 13:31N 29°59' W 090°01'2 1.7
2014-Dec-14 12:33N 29°60' W 090°00'5 4.6
2014-Dec-14 11:24N 30°01' W 089°54'4 3.6
2014-Dec-14 10:25N 30°00' W 089°58'4 4.2
2014-Dec-14 09:33N 29°58' W 090°02'0 0.3
2014-Dec-14 08:33N 29°58' W 090°02'0 0.5
2014-Dec-14 07:33N 29°57' W 090°02'2 1.7
2014-Dec-14 06:32N 29°56' W 090°00'2 2.0
2014-Dec-14 05:33N 29°58' W 090°02'5 4.4
2014-Dec-14 04:31N 30°00' W 089°57'3 3.2
2014-Dec-14 03:30N 30°01' W 089°53'3 2.7
2014-Dec-14 02:21N 30°00' W 089°57'4 5.1
2014-Dec-14 01:30N 29°58' W 090°01'2 1.8
2014-Dec-14 00:25N 29°57' W 090°00'0 0.3
2014-Dec-13 23:31N 29°57' W 090°01'0 0.0
2014-Dec-13 13:24N 29°57' W 090°01'0 0.4
2014-Dec-13 12:32N 29°56' W 090°00'4 0.8
2014-Dec-13 08:18N 29°60' W 089°60'0 0.4
2014-Dec-13 07:09N 29°60' W 090°00'2 3.7
2014-Dec-13 06:33N 29°58' W 090°02'2 1.7
2014-Dec-13 05:18N 29°56' W 090°00'3 1.4
2014-Dec-13 03:17N 29°55' W 089°57'1 1.7
2014-Dec-13 02:29N 29°55' W 089°58'3 1.3
2014-Dec-13 00:32N 29°57' W 090°01'2 2.0
2014-Dec-12 23:23N 29°59' W 090°01'0 0.4
2014-Dec-12 22:31N 29°59' W 090°01'0 0.3
2014-Dec-12 21:33N 29°60' W 090°01'0 0.4
2014-Dec-12 20:29N 29°59' W 090°01'0 0.3
2014-Dec-12 19:33N 29°59' W 090°01'0 0.5
2014-Dec-12 18:33N 29°59' W 090°01'3 2.7
2014-Dec-12 17:29N 29°56' W 090°00'0 0.0
2014-Dec-12 16:30N 29°56' W 090°00'2 2.1
2014-Dec-12 15:31N 29°58' W 090°02'1 1.0
2014-Dec-12 14:32N 29°59' W 090°01'3 3.1
2014-Dec-12 13:33N 30°00' W 089°58'4 3.8
2014-Dec-12 12:29N 30°01' W 089°53'0 0.0
2014-Dec-12 11:32N 30°01' W 089°53'5 4.8
2014-Dec-12 10:31N 29°60' W 089°59'  
Track history (hours):
 
Tides and Currents Weather Stations Pressure Air Temp Water Temp Dewpoint Dewpoint Depression Visibility Wind Speed Wind Dir Waves Ship Positions

Wendy C

Owner: Harbor Towing & Fleeting, Inc., Metairie, LA. More information available from US FCC via Universal Licensing System and Coast Guard Vessel Documentation Center.

Last reported at 2014-Dec-22 10:24 UTC. Time now 2014-Dec-22 14:55 UTC.
Position N 29°56' W 089°58'.

Length 19 m; draft 3 m.

Type: Towing. MMSI: 366160126.

Date/timePositionNaut miles runAvg speedWind from/ knotsBaromVisibWave heightAir tempDewpointWater temp
2014-Dec-22 10:24N 29°56' W 089°58'0 0.0
2014-Dec-22 09:27N 29°56' W 089°58'0 0.0
2014-Dec-22 08:30N 29°56' W 089°58'0 0.0
2014-Dec-22 07:24N 29°56' W 089°58'0 0.0
2014-Dec-22 05:26N 29°56' W 089°58'0 0.0
2014-Dec-22 04:26N 29°56' W 089°58'0 0.0
2014-Dec-22 03:19N 29°56' W 089°58'0 0.0
2014-Dec-22 02:27N 29°56' W 089°58'0 0.0
2014-Dec-21 13:16N 29°56' W 089°58'0 0.0
2014-Dec-21 12:05N 29°56' W 089°58'0 0.0
2014-Dec-21 11:17N 29°56' W 089°58'0 0.0
2014-Dec-21 10:23N 29°56' W 089°58'0 0.0
2014-Dec-21 09:23N 29°56' W 089°58'0 0.0
2014-Dec-21 08:33N 29°56' W 089°58'2 2.0
2014-Dec-21 07:33N 29°56' W 090°00'1 0.7
2014-Dec-21 06:29N 29°56' W 089°59'0 0.1
2014-Dec-21 05:32N 29°56' W 089°60'0 0.0
2014-Dec-21 04:26N 29°56' W 089°60'3 3.1
2014-Dec-21 03:32N 29°58' W 090°02'0 0.3
2014-Dec-21 02:30N 29°58' W 090°01'2 2.3
2014-Dec-21 01:28N 29°60' W 089°59'3 3.1
2014-Dec-21 00:33N 29°58' W 090°02'1 0.7
2014-Dec-20 23:33N 29°57' W 090°01'1 0.6
2014-Dec-20 21:32N 29°56' W 090°00'2 1.9
2014-Dec-20 20:32N 29°58' W 090°02'1 0.1
2014-Dec-20 08:09N 29°57' W 090°02'0 0.1
2014-Dec-20 07:32N 29°57' W 090°02'1 0.8
2014-Dec-20 06:29N 29°58' W 090°02'0 0.1
2014-Dec-20 05:20N 29°58' W 090°02'2 1.0
2014-Dec-20 03:16N 29°60' W 090°00'2 2.2
2014-Dec-20 02:12N 29°58' W 090°02'1 0.9
2014-Dec-20 01:32N 29°57' W 090°01'2 1.4
2014-Dec-20 00:17N 29°56' W 089°60'2 3.0
2014-Dec-19 23:28N 29°58' W 090°02'0 0.2
2014-Dec-19 22:31N 29°58' W 090°02'0 0.0
2014-Dec-19 21:33N 29°58' W 090°02'2 2.0
2014-Dec-19 20:31N 29°60' W 090°00'6 5.2
2014-Dec-19 19:19N 30°01' W 089°54'0 0.0
2014-Dec-19 18:03N 30°01' W 089°54'1 2.4
2014-Dec-19 17:30N 30°01' W 089°55'6 6.2
2014-Dec-19 16:33N 29°59' W 090°01'2 1.9
2014-Dec-19 15:32N 29°57' W 090°01'3 1.2
2014-Dec-19 13:03N 29°54' W 089°59'2 1.2
2014-Dec-19 11:10N 29°55' W 089°57'1 1.8
2014-Dec-19 10:29N 29°55' W 089°58'1 1.1
2014-Dec-19 09:31N 29°54' W 089°59'2 0.2
2014-Dec-18 23:19N 29°56' W 090°00'0 0.0
2014-Dec-18 22:07N 29°56' W 090°00'0 0.0
2014-Dec-18 21:21N 29°56' W 090°00'0 0.0
2014-Dec-18 19:25N 29°56' W 090°00'2 1.1
2014-Dec-18 17:06N 29°55' W 089°58'4 7.5
2014-Dec-18 16:32N 29°58' W 090°02'3 2.7
2014-Dec-18 15:31N 29°60' W 089°59'3 2.9
2014-Dec-18 14:33N 29°58' W 090°02'2 0.6
2014-Dec-18 11:28N 29°56' W 090°00'2 2.1
2014-Dec-18 10:33N 29°58' W 090°02'0 0.4
2014-Dec-18 09:32N 29°58' W 090°01'2 1.6
2014-Dec-18 08:32N 29°60' W 090°01'6 5.9
2014-Dec-18 07:33N 30°01' W 089°54'0 0.4
2014-Dec-18 06:33N 30°01' W 089°54'3 2.1
2014-Dec-18 05:18N 30°00' W 089°56'4 4.4
2014-Dec-18 04:25N 29°60' W 090°01'2 2.3
2014-Dec-18 03:31N 29°58' W 090°02'2 1.8
2014-Dec-18 02:20N 29°56' W 090°00'4 0.3
2014-Dec-17 16:03N 29°60' W 090°01'0 0.4
2014-Dec-17 15:15N 29°59' W 090°01'0 0.3
2014-Dec-17 14:20N 29°60' W 090°01'0 0.3
2014-Dec-17 13:15N 29°59' W 090°01'2 2.2
2014-Dec-17 12:33N 29°60' W 089°60'3 2.6
2014-Dec-17 11:25N 29°58' W 090°02'1 1.2
2014-Dec-17 10:30N 29°57' W 090°01'1 1.2
2014-Dec-17 09:33N 29°56' W 089°60'0 0.1
2014-Dec-17 08:32N 29°56' W 090°00'2 2.1
2014-Dec-17 07:30N 29°58' W 090°02'4 4.6
2014-Dec-17 06:33N 30°00' W 089°57'4 4.1
2014-Dec-17 05:33N 30°01' W 089°53'7 6.3
2014-Dec-17 04:31N 29°60' W 090°00'3 2.9
2014-Dec-17 03:33N 29°57' W 090°01'1 1.3
2014-Dec-17 02:30N 29°56' W 090°00'0 0.1
2014-Dec-17 01:33N 29°56' W 090°00'0 0.2
2014-Dec-17 00:32N 29°56' W 090°00'0 0.1
2014-Dec-16 23:32N 29°56' W 090°00'1 0.1
2014-Dec-16 06:18N 29°57' W 090°01'1 0.1
2014-Dec-16 02:31N 29°58' W 090°02'1 0.2
2014-Dec-15 23:20N 29°57' W 090°01'1 1.5
2014-Dec-15 22:26N 29°56' W 090°00'0 0.0
2014-Dec-15 21:33N 29°56' W 090°00'0 0.0
2014-Dec-15 20:33N 29°56' W 090°00'0 0.0
2014-Dec-15 19:30N 29°56' W 090°00'3 2.9
2014-Dec-15 18:33N 29°59' W 090°01'1 1.2
2014-Dec-15 17:32N 29°60' W 090°00'2 2.2
2014-Dec-15 16:30N 29°58' W 090°02'1 0.6
2014-Dec-15 15:32N 29°57' W 090°01'1 0.1
2014-Dec-15 00:17N 29°58' W 090°02'2 0.6
2014-Dec-14 20:18N 29°56' W 090°00'0 0.2
2014-Dec-14 19:33N 29°56' W 090°00'0 0.0
2014-Dec-14 17:26N 29°56' W 090°00'0 0.0
2014-Dec-14 16:21N 29°56' W 090°00'2 2.4
2014-Dec-14 15:33N 29°57' W 090°02'1 0.8
2014-Dec-14 14:33N 29°58' W 090°02'0 0.5
2014-Dec-14 13:31N 29°59' W 090°01'2 1.7
2014-Dec-14 12:33N 29°60' W 090°00'5 4.6
2014-Dec-14 11:24N 30°01' W 089°54'4 3.6
2014-Dec-14 10:25N 30°00' W 089°58'4 4.2
2014-Dec-14 09:33N 29°58' W 090°02'0 0.3
2014-Dec-14 08:33N 29°58' W 090°02'0 0.5
2014-Dec-14 07:33N 29°57' W 090°02'2 1.7
2014-Dec-14 06:32N 29°56' W 090°00'2 2.0
2014-Dec-14 05:33N 29°58' W 090°02'5 4.4
2014-Dec-14 04:31N 30°00' W 089°57'3 3.2
2014-Dec-14 03:30N 30°01' W 089°53'3 2.7
2014-Dec-14 02:21N 30°00' W 089°57'4 5.1
2014-Dec-14 01:30N 29°58' W 090°01'2 1.8
2014-Dec-14 00:25N 29°57' W 090°00'0 0.3
2014-Dec-13 23:31N 29°57' W 090°01'0 0.0
2014-Dec-13 13:24N 29°57' W 090°01'0 0.4
2014-Dec-13 12:32N 29°56' W 090°00'4 0.8
2014-Dec-13 08:18N 29°60' W 089°60'0 0.4
2014-Dec-13 07:09N 29°60' W 090°00'2 3.7
2014-Dec-13 06:33N 29°58' W 090°02'2 1.7
2014-Dec-13 05:18N 29°56' W 090°00'3 1.4
2014-Dec-13 03:17N 29°55' W 089°57'1 1.7
2014-Dec-13 02:29N 29°55' W 089°58'3 1.3
2014-Dec-13 00:32N 29°57' W 090°01'2 2.0
2014-Dec-12 23:23N 29°59' W 090°01'0 0.4
2014-Dec-12 22:31N 29°59' W 090°01'0 0.3
2014-Dec-12 21:33N 29°60' W 090°01'0 0.4
2014-Dec-12 20:29N 29°59' W 090°01'0 0.3
2014-Dec-12 19:33N 29°59' W 090°01'0 0.5
2014-Dec-12 18:33N 29°59' W 090°01'3 2.7
2014-Dec-12 17:29N 29°56' W 090°00'0 0.0
2014-Dec-12 16:30N 29°56' W 090°00'2 2.1
2014-Dec-12 15:31N 29°58' W 090°02'1 1.0
2014-Dec-12 14:32N 29°59' W 090°01'3 3.1
2014-Dec-12 13:33N 30°00' W 089°58'4 3.8
2014-Dec-12 12:29N 30°01' W 089°53'0 0.0
2014-Dec-12 11:32N 30°01' W 089°53'5 4.8
2014-Dec-12 10:31N 29°60' W 089°59'  

Dump ship's entire track history